sensor_id;sensor_type;location;lat;lon;timestamp;P1;durP1;ratioP1;P2;durP2;ratioP2
177;SDS011;77;48.792;9.032;2023-05-10T00:00:44;4.53;;;1.40;;
177;SDS011;77;48.792;9.032;2023-05-10T00:03:09;5.83;;;1.53;;
177;SDS011;77;48.792;9.032;2023-05-10T00:05:34;3.90;;;1.40;;
177;SDS011;77;48.792;9.032;2023-05-10T00:08:00;4.73;;;1.77;;
177;SDS011;77;48.792;9.032;2023-05-10T00:10:26;4.67;;;1.33;;
177;SDS011;77;48.792;9.032;2023-05-10T00:12:51;6.60;;;1.30;;
177;SDS011;77;48.792;9.032;2023-05-10T00:15:17;3.60;;;1.20;;
177;SDS011;77;48.792;9.032;2023-05-10T00:17:42;3.90;;;1.40;;
177;SDS011;77;48.792;9.032;2023-05-10T00:20:07;6.33;;;1.40;;
177;SDS011;77;48.792;9.032;2023-05-10T00:22:33;3.67;;;1.30;;
177;SDS011;77;48.792;9.032;2023-05-10T00:24:59;3.93;;;1.30;;
177;SDS011;77;48.792;9.032;2023-05-10T00:27:25;3.43;;;1.20;;
177;SDS011;77;48.792;9.032;2023-05-10T00:29:50;3.80;;;1.20;;
177;SDS011;77;48.792;9.032;2023-05-10T00:32:16;5.30;;;1.50;;
177;SDS011;77;48.792;9.032;2023-05-10T00:34:41;3.77;;;1.23;;
177;SDS011;77;48.792;9.032;2023-05-10T00:37:06;5.60;;;1.40;;
177;SDS011;77;48.792;9.032;2023-05-10T00:39:31;4.00;;;1.30;;
177;SDS011;77;48.792;9.032;2023-05-10T00:41:56;5.07;;;1.30;;
177;SDS011;77;48.792;9.032;2023-05-10T00:44:23;3.73;;;1.20;;
177;SDS011;77;48.792;9.032;2023-05-10T00:46:48;5.07;;;1.37;;
177;SDS011;77;48.792;9.032;2023-05-10T00:49:14;3.90;;;1.30;;
177;SDS011;77;48.792;9.032;2023-05-10T00:51:39;4.47;;;1.20;;
177;SDS011;77;48.792;9.032;2023-05-10T00:54:04;4.13;;;1.20;;
177;SDS011;77;48.792;9.032;2023-05-10T00:56:30;3.63;;;1.23;;
177;SDS011;77;48.792;9.032;2023-05-10T00:58:55;3.60;;;1.27;;
177;SDS011;77;48.792;9.032;2023-05-10T01:01:22;4.00;;;1.30;;
177;SDS011;77;48.792;9.032;2023-05-10T01:03:47;3.70;;;1.30;;
177;SDS011;77;48.792;9.032;2023-05-10T01:06:13;5.73;;;1.20;;
177;SDS011;77;48.792;9.032;2023-05-10T01:08:38;3.73;;;1.30;;
177;SDS011;77;48.792;9.032;2023-05-10T01:11:03;4.97;;;1.23;;
177;SDS011;77;48.792;9.032;2023-05-10T01:13:30;4.63;;;1.40;;
177;SDS011;77;48.792;9.032;2023-05-10T01:15:56;3.77;;;1.27;;
177;SDS011;77;48.792;9.032;2023-05-10T01:18:23;4.00;;;1.40;;
177;SDS011;77;48.792;9.032;2023-05-10T01:20:49;6.03;;;1.40;;
177;SDS011;77;48.792;9.032;2023-05-10T01:23:25;4.97;;;1.60;;
177;SDS011;77;48.792;9.032;2023-05-10T01:26:04;3.80;;;1.30;;
177;SDS011;77;48.792;9.032;2023-05-10T01:28:36;7.30;;;1.63;;
177;SDS011;77;48.792;9.032;2023-05-10T01:31:07;3.73;;;1.30;;
177;SDS011;77;48.792;9.032;2023-05-10T01:33:35;5.60;;;1.50;;
177;SDS011;77;48.792;9.032;2023-05-10T01:36:03;3.80;;;1.50;;
177;SDS011;77;48.792;9.032;2023-05-10T01:38:33;3.70;;;1.40;;
177;SDS011;77;48.792;9.032;2023-05-10T01:41:11;4.17;;;1.60;;
177;SDS011;77;48.792;9.032;2023-05-10T01:43:39;5.77;;;1.50;;
177;SDS011;77;48.792;9.032;2023-05-10T01:46:08;3.90;;;1.50;;
177;SDS011;77;48.792;9.032;2023-05-10T01:48:35;3.80;;;1.50;;
177;SDS011;77;48.792;9.032;2023-05-10T01:51:01;4.40;;;1.40;;
177;SDS011;77;48.792;9.032;2023-05-10T01:53:27;3.90;;;1.50;;
177;SDS011;77;48.792;9.032;2023-05-10T01:55:53;4.10;;;1.47;;
177;SDS011;77;48.792;9.032;2023-05-10T01:58:21;4.73;;;1.30;;
177;SDS011;77;48.792;9.032;2023-05-10T02:00:47;3.97;;;1.50;;
177;SDS011;77;48.792;9.032;2023-05-10T02:03:14;3.90;;;1.50;;
177;SDS011;77;48.792;9.032;2023-05-10T02:05:42;4.63;;;1.40;;
177;SDS011;77;48.792;9.032;2023-05-10T02:08:08;4.27;;;1.50;;
177;SDS011;77;48.792;9.032;2023-05-10T02:10:34;7.10;;;1.70;;
177;SDS011;77;48.792;9.032;2023-05-10T02:13:00;6.30;;;1.60;;
177;SDS011;77;48.792;9.032;2023-05-10T02:15:25;5.27;;;1.50;;
177;SDS011;77;48.792;9.032;2023-05-10T02:17:51;5.80;;;1.40;;
177;SDS011;77;48.792;9.032;2023-05-10T02:20:17;5.50;;;1.50;;
177;SDS011;77;48.792;9.032;2023-05-10T02:22:44;5.10;;;1.50;;
177;SDS011;77;48.792;9.032;2023-05-10T02:25:11;4.00;;;1.50;;
177;SDS011;77;48.792;9.032;2023-05-10T02:27:38;5.33;;;1.60;;
177;SDS011;77;48.792;9.032;2023-05-10T02:30:04;4.40;;;1.70;;
177;SDS011;77;48.792;9.032;2023-05-10T02:32:30;5.00;;;1.60;;
177;SDS011;77;48.792;9.032;2023-05-10T02:34:55;5.70;;;1.70;;
177;SDS011;77;48.792;9.032;2023-05-10T02:37:21;5.20;;;1.60;;
177;SDS011;77;48.792;9.032;2023-05-10T02:39:48;6.17;;;1.87;;
177;SDS011;77;48.792;9.032;2023-05-10T02:42:14;4.50;;;1.80;;
177;SDS011;77;48.792;9.032;2023-05-10T02:44:40;4.20;;;1.80;;
177;SDS011;77;48.792;9.032;2023-05-10T02:47:06;3.83;;;1.57;;
177;SDS011;77;48.792;9.032;2023-05-10T02:49:31;4.40;;;1.80;;
177;SDS011;77;48.792;9.032;2023-05-10T02:51:58;4.40;;;1.60;;
177;SDS011;77;48.792;9.032;2023-05-10T02:54:27;4.60;;;2.00;;
177;SDS011;77;48.792;9.032;2023-05-10T02:56:55;5.07;;;1.87;;
177;SDS011;77;48.792;9.032;2023-05-10T02:59:21;4.63;;;1.90;;
177;SDS011;77;48.792;9.032;2023-05-10T03:01:46;4.23;;;1.87;;
177;SDS011;77;48.792;9.032;2023-05-10T03:04:11;4.80;;;2.00;;
177;SDS011;77;48.792;9.032;2023-05-10T03:06:37;5.70;;;2.00;;
177;SDS011;77;48.792;9.032;2023-05-10T03:09:02;4.80;;;2.20;;
177;SDS011;77;48.792;9.032;2023-05-10T03:11:31;4.87;;;2.23;;
177;SDS011;77;48.792;9.032;2023-05-10T03:14:03;4.90;;;2.30;;
177;SDS011;77;48.792;9.032;2023-05-10T03:16:35;4.63;;;2.20;;
177;SDS011;77;48.792;9.032;2023-05-10T03:19:02;8.20;;;2.50;;
177;SDS011;77;48.792;9.032;2023-05-10T03:21:31;5.57;;;2.30;;
177;SDS011;77;48.792;9.032;2023-05-10T03:23:58;5.70;;;2.43;;
177;SDS011;77;48.792;9.032;2023-05-10T03:26:24;5.97;;;2.50;;
177;SDS011;77;48.792;9.032;2023-05-10T03:28:50;4.50;;;2.10;;
177;SDS011;77;48.792;9.032;2023-05-10T03:31:17;6.90;;;2.40;;
177;SDS011;77;48.792;9.032;2023-05-10T03:33:45;7.13;;;2.30;;
177;SDS011;77;48.792;9.032;2023-05-10T03:36:10;5.03;;;2.27;;
177;SDS011;77;48.792;9.032;2023-05-10T03:38:36;5.37;;;2.30;;
177;SDS011;77;48.792;9.032;2023-05-10T03:41:01;6.20;;;2.10;;
177;SDS011;77;48.792;9.032;2023-05-10T03:43:26;4.97;;;2.03;;
177;SDS011;77;48.792;9.032;2023-05-10T03:45:51;4.53;;;1.97;;
177;SDS011;77;48.792;9.032;2023-05-10T03:48:18;4.80;;;2.00;;
177;SDS011;77;48.792;9.032;2023-05-10T03:50:43;5.00;;;1.93;;
177;SDS011;77;48.792;9.032;2023-05-10T03:53:08;4.93;;;2.00;;
177;SDS011;77;48.792;9.032;2023-05-10T03:55:33;6.03;;;2.33;;
177;SDS011;77;48.792;9.032;2023-05-10T03:57:58;5.47;;;2.20;;
177;SDS011;77;48.792;9.032;2023-05-10T04:00:24;5.73;;;2.13;;
177;SDS011;77;48.792;9.032;2023-05-10T04:02:49;4.47;;;2.03;;
177;SDS011;77;48.792;9.032;2023-05-10T04:05:15;4.50;;;2.00;;
177;SDS011;77;48.792;9.032;2023-05-10T04:07:41;4.80;;;2.00;;
177;SDS011;77;48.792;9.032;2023-05-10T04:10:06;4.63;;;2.20;;
177;SDS011;77;48.792;9.032;2023-05-10T04:12:32;6.60;;;2.10;;
177;SDS011;77;48.792;9.032;2023-05-10T04:14:57;5.20;;;2.30;;
177;SDS011;77;48.792;9.032;2023-05-10T04:17:22;4.37;;;1.90;;
177;SDS011;77;48.792;9.032;2023-05-10T04:19:47;5.07;;;2.20;;
177;SDS011;77;48.792;9.032;2023-05-10T04:22:14;5.70;;;2.43;;
177;SDS011;77;48.792;9.032;2023-05-10T04:24:39;5.37;;;2.10;;
177;SDS011;77;48.792;9.032;2023-05-10T04:27:04;5.10;;;2.40;;
177;SDS011;77;48.792;9.032;2023-05-10T04:29:29;5.80;;;2.20;;
177;SDS011;77;48.792;9.032;2023-05-10T04:31:54;5.00;;;2.20;;
177;SDS011;77;48.792;9.032;2023-05-10T04:34:20;5.70;;;2.27;;
177;SDS011;77;48.792;9.032;2023-05-10T04:36:45;6.27;;;2.50;;
177;SDS011;77;48.792;9.032;2023-05-10T04:39:12;4.60;;;2.10;;
177;SDS011;77;48.792;9.032;2023-05-10T04:41:37;6.83;;;2.60;;
177;SDS011;77;48.792;9.032;2023-05-10T04:44:02;5.70;;;2.40;;
177;SDS011;77;48.792;9.032;2023-05-10T04:46:28;6.50;;;2.10;;
177;SDS011;77;48.792;9.032;2023-05-10T04:48:53;9.43;;;2.30;;
177;SDS011;77;48.792;9.032;2023-05-10T04:51:18;5.80;;;2.00;;
177;SDS011;77;48.792;9.032;2023-05-10T04:53:43;5.03;;;2.10;;
177;SDS011;77;48.792;9.032;2023-05-10T04:56:10;5.00;;;2.23;;
177;SDS011;77;48.792;9.032;2023-05-10T04:58:35;5.20;;;2.40;;
177;SDS011;77;48.792;9.032;2023-05-10T05:01:04;4.70;;;2.20;;
177;SDS011;77;48.792;9.032;2023-05-10T05:03:30;5.23;;;2.30;;
177;SDS011;77;48.792;9.032;2023-05-10T05:05:55;5.57;;;2.50;;
177;SDS011;77;48.792;9.032;2023-05-10T05:08:20;5.27;;;2.33;;
177;SDS011;77;48.792;9.032;2023-05-10T05:10:45;5.20;;;2.30;;
177;SDS011;77;48.792;9.032;2023-05-10T05:13:13;5.17;;;2.30;;
177;SDS011;77;48.792;9.032;2023-05-10T05:15:38;5.80;;;2.77;;
177;SDS011;77;48.792;9.032;2023-05-10T05:18:04;5.77;;;2.13;;
177;SDS011;77;48.792;9.032;2023-05-10T05:20:31;5.40;;;2.33;;
177;SDS011;77;48.792;9.032;2023-05-10T05:22:56;5.10;;;2.30;;
177;SDS011;77;48.792;9.032;2023-05-10T05:25:21;5.20;;;2.13;;
177;SDS011;77;48.792;9.032;2023-05-10T05:27:47;5.57;;;2.50;;
177;SDS011;77;48.792;9.032;2023-05-10T05:30:13;5.30;;;2.43;;
177;SDS011;77;48.792;9.032;2023-05-10T05:32:38;5.80;;;2.60;;
177;SDS011;77;48.792;9.032;2023-05-10T05:35:04;5.23;;;2.43;;
177;SDS011;77;48.792;9.032;2023-05-10T05:37:29;7.20;;;2.50;;
177;SDS011;77;48.792;9.032;2023-05-10T05:39:55;7.27;;;2.60;;
177;SDS011;77;48.792;9.032;2023-05-10T05:42:20;5.50;;;2.47;;
177;SDS011;77;48.792;9.032;2023-05-10T05:44:45;10.10;;;2.47;;
177;SDS011;77;48.792;9.032;2023-05-10T05:47:11;6.10;;;2.60;;
177;SDS011;77;48.792;9.032;2023-05-10T05:49:37;5.50;;;2.67;;
177;SDS011;77;48.792;9.032;2023-05-10T05:52:02;5.47;;;2.60;;
177;SDS011;77;48.792;9.032;2023-05-10T05:54:28;5.57;;;2.80;;
177;SDS011;77;48.792;9.032;2023-05-10T05:56:53;5.10;;;2.50;;
177;SDS011;77;48.792;9.032;2023-05-10T05:59:18;5.33;;;2.30;;
177;SDS011;77;48.792;9.032;2023-05-10T06:01:44;5.87;;;2.60;;
177;SDS011;77;48.792;9.032;2023-05-10T06:04:10;6.50;;;2.30;;
177;SDS011;77;48.792;9.032;2023-05-10T06:06:35;7.27;;;2.67;;
177;SDS011;77;48.792;9.032;2023-05-10T06:09:00;5.17;;;2.23;;
177;SDS011;77;48.792;9.032;2023-05-10T06:11:26;4.93;;;2.50;;
177;SDS011;77;48.792;9.032;2023-05-10T06:13:51;5.80;;;2.37;;
177;SDS011;77;48.792;9.032;2023-05-10T06:16:16;5.50;;;2.53;;
177;SDS011;77;48.792;9.032;2023-05-10T06:18:42;4.90;;;2.50;;
177;SDS011;77;48.792;9.032;2023-05-10T06:21:08;8.60;;;2.50;;
177;SDS011;77;48.792;9.032;2023-05-10T06:23:33;6.70;;;2.67;;
177;SDS011;77;48.792;9.032;2023-05-10T06:25:58;7.30;;;2.70;;
177;SDS011;77;48.792;9.032;2023-05-10T06:28:24;6.70;;;2.90;;
177;SDS011;77;48.792;9.032;2023-05-10T06:30:49;6.40;;;2.90;;
177;SDS011;77;48.792;9.032;2023-05-10T06:33:14;7.90;;;3.10;;
177;SDS011;77;48.792;9.032;2023-05-10T06:35:39;7.10;;;2.90;;
177;SDS011;77;48.792;9.032;2023-05-10T06:38:06;8.10;;;3.13;;
177;SDS011;77;48.792;9.032;2023-05-10T06:40:31;5.83;;;2.90;;
177;SDS011;77;48.792;9.032;2023-05-10T06:42:56;6.47;;;2.90;;
177;SDS011;77;48.792;9.032;2023-05-10T06:45:21;6.27;;;2.90;;
177;SDS011;77;48.792;9.032;2023-05-10T06:47:46;5.63;;;2.70;;
177;SDS011;77;48.792;9.032;2023-05-10T06:50:12;6.27;;;2.70;;
177;SDS011;77;48.792;9.032;2023-05-10T06:52:37;6.10;;;2.40;;
177;SDS011;77;48.792;9.032;2023-05-10T06:55:04;5.80;;;3.10;;
177;SDS011;77;48.792;9.032;2023-05-10T06:57:30;5.77;;;2.33;;
177;SDS011;77;48.792;9.032;2023-05-10T06:59:55;6.60;;;2.70;;
177;SDS011;77;48.792;9.032;2023-05-10T07:02:20;6.17;;;3.00;;
177;SDS011;77;48.792;9.032;2023-05-10T07:04:46;6.60;;;2.80;;
177;SDS011;77;48.792;9.032;2023-05-10T07:07:11;6.00;;;2.77;;
177;SDS011;77;48.792;9.032;2023-05-10T07:09:37;6.40;;;3.50;;
177;SDS011;77;48.792;9.032;2023-05-10T07:12:04;5.70;;;2.60;;
177;SDS011;77;48.792;9.032;2023-05-10T07:14:29;5.77;;;2.97;;
177;SDS011;77;48.792;9.032;2023-05-10T07:16:54;5.23;;;2.60;;
177;SDS011;77;48.792;9.032;2023-05-10T07:19:19;6.03;;;2.87;;
177;SDS011;77;48.792;9.032;2023-05-10T07:21:44;7.30;;;2.90;;
177;SDS011;77;48.792;9.032;2023-05-10T07:24:10;5.97;;;2.70;;
177;SDS011;77;48.792;9.032;2023-05-10T07:26:35;7.23;;;2.67;;
177;SDS011;77;48.792;9.032;2023-05-10T07:29:01;5.20;;;2.60;;
177;SDS011;77;48.792;9.032;2023-05-10T07:31:27;7.00;;;2.40;;
177;SDS011;77;48.792;9.032;2023-05-10T07:33:52;5.20;;;2.60;;
177;SDS011;77;48.792;9.032;2023-05-10T07:36:17;4.83;;;2.37;;
177;SDS011;77;48.792;9.032;2023-05-10T07:38:42;6.03;;;2.20;;
177;SDS011;77;48.792;9.032;2023-05-10T07:41:07;5.10;;;2.30;;
177;SDS011;77;48.792;9.032;2023-05-10T07:43:33;5.33;;;2.50;;
177;SDS011;77;48.792;9.032;2023-05-10T07:45:59;6.63;;;2.20;;
177;SDS011;77;48.792;9.032;2023-05-10T07:48:24;5.60;;;2.23;;
177;SDS011;77;48.792;9.032;2023-05-10T07:50:50;5.90;;;2.27;;
177;SDS011;77;48.792;9.032;2023-05-10T07:53:15;8.27;;;2.40;;
177;SDS011;77;48.792;9.032;2023-05-10T07:55:40;4.73;;;2.00;;
177;SDS011;77;48.792;9.032;2023-05-10T07:58:05;5.80;;;2.00;;
177;SDS011;77;48.792;9.032;2023-05-10T08:00:30;4.47;;;2.17;;
177;SDS011;77;48.792;9.032;2023-05-10T08:02:57;5.00;;;2.00;;
177;SDS011;77;48.792;9.032;2023-05-10T08:05:22;10.27;;;1.87;;
177;SDS011;77;48.792;9.032;2023-05-10T08:07:48;4.23;;;1.90;;
177;SDS011;77;48.792;9.032;2023-05-10T08:10:13;4.27;;;1.90;;
177;SDS011;77;48.792;9.032;2023-05-10T08:12:38;4.23;;;1.90;;
177;SDS011;77;48.792;9.032;2023-05-10T08:15:04;6.47;;;1.90;;
177;SDS011;77;48.792;9.032;2023-05-10T08:17:29;4.20;;;1.87;;
177;SDS011;77;48.792;9.032;2023-05-10T08:19:56;5.13;;;1.97;;
177;SDS011;77;48.792;9.032;2023-05-10T08:22:21;4.03;;;1.83;;
177;SDS011;77;48.792;9.032;2023-05-10T08:24:46;6.27;;;2.20;;
177;SDS011;77;48.792;9.032;2023-05-10T08:27:12;3.80;;;1.80;;
177;SDS011;77;48.792;9.032;2023-05-10T08:29:37;4.40;;;1.90;;
177;SDS011;77;48.792;9.032;2023-05-10T08:32:02;3.90;;;1.60;;
177;SDS011;77;48.792;9.032;2023-05-10T08:34:27;5.33;;;1.80;;
177;SDS011;77;48.792;9.032;2023-05-10T08:36:54;5.47;;;1.70;;
177;SDS011;77;48.792;9.032;2023-05-10T08:39:19;3.90;;;1.70;;
177;SDS011;77;48.792;9.032;2023-05-10T08:41:45;4.13;;;1.70;;
177;SDS011;77;48.792;9.032;2023-05-10T08:44:11;3.80;;;1.60;;
177;SDS011;77;48.792;9.032;2023-05-10T08:46:37;4.17;;;1.80;;
177;SDS011;77;48.792;9.032;2023-05-10T08:49:02;4.13;;;1.70;;
177;SDS011;77;48.792;9.032;2023-05-10T08:51:28;4.70;;;1.67;;
177;SDS011;77;48.792;9.032;2023-05-10T08:53:56;3.80;;;1.70;;
177;SDS011;77;48.792;9.032;2023-05-10T08:56:21;5.30;;;1.60;;
177;SDS011;77;48.792;9.032;2023-05-10T08:58:46;3.60;;;1.40;;
177;SDS011;77;48.792;9.032;2023-05-10T09:01:12;4.63;;;1.60;;
177;SDS011;77;48.792;9.032;2023-05-10T09:03:38;4.23;;;1.60;;
177;SDS011;77;48.792;9.032;2023-05-10T09:06:04;7.30;;;1.70;;
177;SDS011;77;48.792;9.032;2023-05-10T09:08:29;4.00;;;1.47;;
177;SDS011;77;48.792;9.032;2023-05-10T09:10:56;3.30;;;1.50;;
177;SDS011;77;48.792;9.032;2023-05-10T09:13:21;4.20;;;1.67;;
177;SDS011;77;48.792;9.032;2023-05-10T09:15:47;4.20;;;1.60;;
177;SDS011;77;48.792;9.032;2023-05-10T09:18:13;3.17;;;1.50;;
177;SDS011;77;48.792;9.032;2023-05-10T09:20:38;3.70;;;1.67;;
177;SDS011;77;48.792;9.032;2023-05-10T09:23:03;4.63;;;1.70;;
177;SDS011;77;48.792;9.032;2023-05-10T09:25:29;3.47;;;1.50;;
177;SDS011;77;48.792;9.032;2023-05-10T09:27:56;4.47;;;1.50;;
177;SDS011;77;48.792;9.032;2023-05-10T09:30:23;3.47;;;1.40;;
177;SDS011;77;48.792;9.032;2023-05-10T09:32:49;4.07;;;1.67;;
177;SDS011;77;48.792;9.032;2023-05-10T09:35:15;4.73;;;1.50;;
177;SDS011;77;48.792;9.032;2023-05-10T09:37:40;3.63;;;1.50;;
177;SDS011;77;48.792;9.032;2023-05-10T09:40:06;4.17;;;1.60;;
177;SDS011;77;48.792;9.032;2023-05-10T09:42:31;3.47;;;1.60;;
177;SDS011;77;48.792;9.032;2023-05-10T09:45:01;3.20;;;1.50;;
177;SDS011;77;48.792;9.032;2023-05-10T09:47:26;3.50;;;1.60;;
177;SDS011;77;48.792;9.032;2023-05-10T09:49:51;3.47;;;1.63;;
177;SDS011;77;48.792;9.032;2023-05-10T09:52:17;11.23;;;1.80;;
177;SDS011;77;48.792;9.032;2023-05-10T09:54:44;6.20;;;1.70;;
177;SDS011;77;48.792;9.032;2023-05-10T09:57:14;5.13;;;1.67;;
177;SDS011;77;48.792;9.032;2023-05-10T09:59:43;5.93;;;1.80;;
177;SDS011;77;48.792;9.032;2023-05-10T10:02:10;3.20;;;1.57;;
177;SDS011;77;48.792;9.032;2023-05-10T10:04:38;3.60;;;1.67;;
177;SDS011;77;48.792;9.032;2023-05-10T10:07:04;5.20;;;1.70;;
177;SDS011;77;48.792;9.032;2023-05-10T10:09:29;3.20;;;1.60;;
177;SDS011;77;48.792;9.032;2023-05-10T10:11:54;3.63;;;1.60;;
177;SDS011;77;48.792;9.032;2023-05-10T10:14:20;3.37;;;1.60;;
177;SDS011;77;48.792;9.032;2023-05-10T10:16:46;4.60;;;1.70;;
177;SDS011;77;48.792;9.032;2023-05-10T10:19:13;3.80;;;1.60;;
177;SDS011;77;48.792;9.032;2023-05-10T10:21:38;4.10;;;1.60;;
177;SDS011;77;48.792;9.032;2023-05-10T10:24:04;4.33;;;1.73;;
177;SDS011;77;48.792;9.032;2023-05-10T10:26:29;3.83;;;1.80;;
177;SDS011;77;48.792;9.032;2023-05-10T10:28:57;3.50;;;1.70;;
177;SDS011;77;48.792;9.032;2023-05-10T10:31:26;3.80;;;1.53;;
177;SDS011;77;48.792;9.032;2023-05-10T10:33:56;3.70;;;1.50;;
177;SDS011;77;48.792;9.032;2023-05-10T10:36:25;3.30;;;1.60;;
177;SDS011;77;48.792;9.032;2023-05-10T10:38:57;3.37;;;1.50;;
177;SDS011;77;48.792;9.032;2023-05-10T10:41:27;3.77;;;1.60;;
177;SDS011;77;48.792;9.032;2023-05-10T10:46:32;3.13;;;1.50;;
177;SDS011;77;48.792;9.032;2023-05-10T10:49:08;3.23;;;1.50;;
177;SDS011;77;48.792;9.032;2023-05-10T10:51:37;3.30;;;1.70;;
177;SDS011;77;48.792;9.032;2023-05-10T10:54:08;3.27;;;1.60;;
177;SDS011;77;48.792;9.032;2023-05-10T10:56:33;4.37;;;1.60;;
177;SDS011;77;48.792;9.032;2023-05-10T10:58:58;3.70;;;1.60;;
177;SDS011;77;48.792;9.032;2023-05-10T11:01:24;3.50;;;1.63;;
177;SDS011;77;48.792;9.032;2023-05-10T11:06:42;5.10;;;1.60;;
177;SDS011;77;48.792;9.032;2023-05-10T11:09:07;4.27;;;1.60;;
177;SDS011;77;48.792;9.032;2023-05-10T11:11:33;3.40;;;1.60;;
177;SDS011;77;48.792;9.032;2023-05-10T11:14:02;3.83;;;1.70;;
177;SDS011;77;48.792;9.032;2023-05-10T11:16:28;5.80;;;1.80;;
177;SDS011;77;48.792;9.032;2023-05-10T11:18:57;3.00;;;1.50;;
177;SDS011;77;48.792;9.032;2023-05-10T11:21:22;3.97;;;1.77;;
177;SDS011;77;48.792;9.032;2023-05-10T11:23:50;3.13;;;1.57;;
177;SDS011;77;48.792;9.032;2023-05-10T11:26:15;5.40;;;1.87;;
177;SDS011;77;48.792;9.032;2023-05-10T11:28:41;3.90;;;1.63;;
177;SDS011;77;48.792;9.032;2023-05-10T11:31:06;3.53;;;1.60;;
177;SDS011;77;48.792;9.032;2023-05-10T11:33:31;4.00;;;1.80;;
177;SDS011;77;48.792;9.032;2023-05-10T11:36:10;3.40;;;1.70;;
177;SDS011;77;48.792;9.032;2023-05-10T11:38:35;4.17;;;2.00;;
177;SDS011;77;48.792;9.032;2023-05-10T11:41:02;3.40;;;1.80;;
177;SDS011;77;48.792;9.032;2023-05-10T11:43:27;3.77;;;1.90;;
177;SDS011;77;48.792;9.032;2023-05-10T11:45:52;5.80;;;1.90;;
177;SDS011;77;48.792;9.032;2023-05-10T11:48:17;5.03;;;2.00;;
177;SDS011;77;48.792;9.032;2023-05-10T11:50:43;8.10;;;1.87;;
177;SDS011;77;48.792;9.032;2023-05-10T11:53:08;5.30;;;2.03;;
177;SDS011;77;48.792;9.032;2023-05-10T11:55:33;4.27;;;2.07;;
177;SDS011;77;48.792;9.032;2023-05-10T11:58:01;4.90;;;1.83;;
177;SDS011;77;48.792;9.032;2023-05-10T12:00:26;5.63;;;2.10;;
177;SDS011;77;48.792;9.032;2023-05-10T12:02:51;5.10;;;2.20;;
177;SDS011;77;48.792;9.032;2023-05-10T12:05:17;4.47;;;2.13;;
177;SDS011;77;48.792;9.032;2023-05-10T12:07:42;6.67;;;2.37;;
177;SDS011;77;48.792;9.032;2023-05-10T12:10:08;5.40;;;2.10;;
177;SDS011;77;48.792;9.032;2023-05-10T12:12:37;4.13;;;2.07;;
177;SDS011;77;48.792;9.032;2023-05-10T12:15:04;5.30;;;2.00;;
177;SDS011;77;48.792;9.032;2023-05-10T12:17:29;3.80;;;2.17;;
177;SDS011;77;48.792;9.032;2023-05-10T12:19:58;4.57;;;2.10;;
177;SDS011;77;48.792;9.032;2023-05-10T12:22:23;5.30;;;2.07;;
177;SDS011;77;48.792;9.032;2023-05-10T12:24:49;3.63;;;1.90;;
177;SDS011;77;48.792;9.032;2023-05-10T12:27:15;3.83;;;1.87;;
177;SDS011;77;48.792;9.032;2023-05-10T12:29:41;8.93;;;2.03;;
177;SDS011;77;48.792;9.032;2023-05-10T12:32:07;7.30;;;2.23;;
177;SDS011;77;48.792;9.032;2023-05-10T12:34:33;3.40;;;1.80;;
177;SDS011;77;48.792;9.032;2023-05-10T12:36:58;3.90;;;2.00;;
177;SDS011;77;48.792;9.032;2023-05-10T12:39:24;3.73;;;1.80;;
177;SDS011;77;48.792;9.032;2023-05-10T12:41:49;5.00;;;2.27;;
177;SDS011;77;48.792;9.032;2023-05-10T12:44:14;4.80;;;2.00;;
177;SDS011;77;48.792;9.032;2023-05-10T12:46:39;5.00;;;2.00;;
177;SDS011;77;48.792;9.032;2023-05-10T12:49:06;3.70;;;2.23;;
177;SDS011;77;48.792;9.032;2023-05-10T12:51:31;4.70;;;2.00;;
177;SDS011;77;48.792;9.032;2023-05-10T12:53:56;4.83;;;2.23;;
177;SDS011;77;48.792;9.032;2023-05-10T12:56:21;5.30;;;2.00;;
177;SDS011;77;48.792;9.032;2023-05-10T12:58:47;5.80;;;2.10;;
177;SDS011;77;48.792;9.032;2023-05-10T13:01:12;3.90;;;2.00;;
177;SDS011;77;48.792;9.032;2023-05-10T13:03:37;5.10;;;2.27;;
177;SDS011;77;48.792;9.032;2023-05-10T13:06:04;4.03;;;2.00;;
177;SDS011;77;48.792;9.032;2023-05-10T13:08:29;3.93;;;2.20;;
177;SDS011;77;48.792;9.032;2023-05-10T13:10:54;5.17;;;2.13;;
177;SDS011;77;48.792;9.032;2023-05-10T13:13:20;4.03;;;1.97;;
177;SDS011;77;48.792;9.032;2023-05-10T13:15:45;4.10;;;2.10;;
177;SDS011;77;48.792;9.032;2023-05-10T13:18:10;4.83;;;2.30;;
177;SDS011;77;48.792;9.032;2023-05-10T13:20:35;7.93;;;2.30;;
177;SDS011;77;48.792;9.032;2023-05-10T13:23:02;3.80;;;2.00;;
177;SDS011;77;48.792;9.032;2023-05-10T13:25:27;3.20;;;2.10;;
177;SDS011;77;48.792;9.032;2023-05-10T13:27:52;3.30;;;1.90;;
177;SDS011;77;48.792;9.032;2023-05-10T13:30:18;3.23;;;1.90;;
177;SDS011;77;48.792;9.032;2023-05-10T13:32:43;7.17;;;2.00;;
177;SDS011;77;48.792;9.032;2023-05-10T13:35:08;3.30;;;2.00;;
177;SDS011;77;48.792;9.032;2023-05-10T13:37:33;2.90;;;2.00;;
177;SDS011;77;48.792;9.032;2023-05-10T13:40:00;3.70;;;2.20;;
177;SDS011;77;48.792;9.032;2023-05-10T13:42:25;3.70;;;2.00;;
177;SDS011;77;48.792;9.032;2023-05-10T13:44:50;6.53;;;2.00;;
177;SDS011;77;48.792;9.032;2023-05-10T13:47:15;3.43;;;1.80;;
177;SDS011;77;48.792;9.032;2023-05-10T13:49:41;4.20;;;1.80;;
177;SDS011;77;48.792;9.032;2023-05-10T13:52:06;3.50;;;1.80;;
177;SDS011;77;48.792;9.032;2023-05-10T13:54:31;4.13;;;1.87;;
177;SDS011;77;48.792;9.032;2023-05-10T13:56:58;2.97;;;1.80;;
177;SDS011;77;48.792;9.032;2023-05-10T13:59:23;2.70;;;1.80;;
177;SDS011;77;48.792;9.032;2023-05-10T14:01:48;3.70;;;1.80;;
177;SDS011;77;48.792;9.032;2023-05-10T14:04:13;4.03;;;1.70;;
177;SDS011;77;48.792;9.032;2023-05-10T14:06:38;4.97;;;2.17;;
177;SDS011;77;48.792;9.032;2023-05-10T14:09:03;5.20;;;2.10;;
177;SDS011;77;48.792;9.032;2023-05-10T14:11:29;4.97;;;1.90;;
177;SDS011;77;48.792;9.032;2023-05-10T14:13:55;3.20;;;1.70;;
177;SDS011;77;48.792;9.032;2023-05-10T14:16:20;4.73;;;2.20;;
177;SDS011;77;48.792;9.032;2023-05-10T14:18:46;3.00;;;1.90;;
177;SDS011;77;48.792;9.032;2023-05-10T14:21:11;4.27;;;1.90;;
177;SDS011;77;48.792;9.032;2023-05-10T14:23:36;2.70;;;1.80;;
177;SDS011;77;48.792;9.032;2023-05-10T14:26:01;5.60;;;2.10;;
177;SDS011;77;48.792;9.032;2023-05-10T14:28:27;3.50;;;1.90;;
177;SDS011;77;48.792;9.032;2023-05-10T14:30:53;4.40;;;1.90;;
177;SDS011;77;48.792;9.032;2023-05-10T14:33:18;5.27;;;1.80;;
177;SDS011;77;48.792;9.032;2023-05-10T14:35:44;4.07;;;1.90;;
177;SDS011;77;48.792;9.032;2023-05-10T14:38:09;6.70;;;2.20;;
177;SDS011;77;48.792;9.032;2023-05-10T14:40:34;4.97;;;2.00;;
177;SDS011;77;48.792;9.032;2023-05-10T14:42:59;5.40;;;2.10;;
177;SDS011;77;48.792;9.032;2023-05-10T14:45:24;3.60;;;1.83;;
177;SDS011;77;48.792;9.032;2023-05-10T14:47:51;3.83;;;1.90;;
177;SDS011;77;48.792;9.032;2023-05-10T14:50:16;3.30;;;1.90;;
177;SDS011;77;48.792;9.032;2023-05-10T14:52:42;4.00;;;2.00;;
177;SDS011;77;48.792;9.032;2023-05-10T14:55:07;4.80;;;1.90;;
177;SDS011;77;48.792;9.032;2023-05-10T14:57:33;2.80;;;1.80;;
177;SDS011;77;48.792;9.032;2023-05-10T14:59:58;3.23;;;1.80;;
177;SDS011;77;48.792;9.032;2023-05-10T15:02:23;4.77;;;1.90;;
177;SDS011;77;48.792;9.032;2023-05-10T15:04:50;4.40;;;1.97;;
177;SDS011;77;48.792;9.032;2023-05-10T15:07:15;2.93;;;1.73;;
177;SDS011;77;48.792;9.032;2023-05-10T15:09:40;6.50;;;2.00;;
177;SDS011;77;48.792;9.032;2023-05-10T15:12:05;4.53;;;1.80;;
177;SDS011;77;48.792;9.032;2023-05-10T15:14:30;3.37;;;1.90;;
177;SDS011;77;48.792;9.032;2023-05-10T15:16:56;2.20;;;1.50;;
177;SDS011;77;48.792;9.032;2023-05-10T15:19:21;3.03;;;1.70;;
177;SDS011;77;48.792;9.032;2023-05-10T15:21:47;5.27;;;1.70;;
177;SDS011;77;48.792;9.032;2023-05-10T15:24:13;2.83;;;1.50;;
177;SDS011;77;48.792;9.032;2023-05-10T15:26:38;3.40;;;1.70;;
177;SDS011;77;48.792;9.032;2023-05-10T15:29:03;2.53;;;1.60;;
177;SDS011;77;48.792;9.032;2023-05-10T15:31:28;2.60;;;1.70;;
177;SDS011;77;48.792;9.032;2023-05-10T15:33:55;2.30;;;1.50;;
177;SDS011;77;48.792;9.032;2023-05-10T15:36:21;2.60;;;1.90;;
177;SDS011;77;48.792;9.032;2023-05-10T15:38:48;4.77;;;1.90;;
177;SDS011;77;48.792;9.032;2023-05-10T15:41:14;2.80;;;1.70;;
177;SDS011;77;48.792;9.032;2023-05-10T15:43:39;3.50;;;1.90;;
177;SDS011;77;48.792;9.032;2023-05-10T15:46:04;2.60;;;1.60;;
177;SDS011;77;48.792;9.032;2023-05-10T15:48:29;3.13;;;1.60;;
177;SDS011;77;48.792;9.032;2023-05-10T15:50:55;2.40;;;1.60;;
177;SDS011;77;48.792;9.032;2023-05-10T15:53:20;2.33;;;1.60;;
177;SDS011;77;48.792;9.032;2023-05-10T15:55:46;2.27;;;1.50;;
177;SDS011;77;48.792;9.032;2023-05-10T15:58:12;3.63;;;1.80;;